createdAt,value
2023-07-17T00:01:04.244Z,99.90
2023-07-17T00:03:34.538Z,1.00
2023-07-17T00:06:07.006Z,1.00
2023-07-17T00:08:39.889Z,1.00
2023-07-17T00:11:10.171Z,1.00
2023-07-17T00:13:45.716Z,1.00
2023-07-17T00:16:18.798Z,1.00
2023-07-17T00:18:49.136Z,99.90
2023-07-17T00:21:25.424Z,99.90
2023-07-17T00:23:58.890Z,1.00
2023-07-17T00:26:29.230Z,1.00
2023-07-17T00:29:24.802Z,1.00
2023-07-17T00:32:16.582Z,1.00
2023-07-17T00:34:47.016Z,1.00
2023-07-17T00:37:22.279Z,1.00
2023-07-17T00:39:55.426Z,1.00
2023-07-17T00:42:25.673Z,1.00
2023-07-17T00:44:55.972Z,1.00
2023-07-17T00:47:26.545Z,99.90
2023-07-17T00:49:57.025Z,74.70
2023-07-17T00:52:32.788Z,1.00
2023-07-17T00:55:06.320Z,1.00
2023-07-17T00:57:37.245Z,1.00
2023-07-17T01:00:10.609Z,99.90
2023-07-17T01:02:54.645Z,1.00
2023-07-17T01:05:25.281Z,99.90
2023-07-17T01:07:58.321Z,1.00
2023-07-17T01:10:31.461Z,99.90
2023-07-17T01:13:01.700Z,1.00
2023-07-17T01:15:32.154Z,1.00
2023-07-17T01:18:02.437Z,99.90
2023-07-17T01:20:32.919Z,1.00
2023-07-17T01:23:21.830Z,37.10
2023-07-17T01:26:01.373Z,99.90
2023-07-17T01:28:32.024Z,99.90
2023-07-17T01:31:02.393Z,1.00
2023-07-17T01:33:34.890Z,1.00
2023-07-17T01:36:07.923Z,1.00
2023-07-17T01:38:40.868Z,1.00
2023-07-17T01:41:11.161Z,1.00
2023-07-17T01:43:41.443Z,1.00
2023-07-17T01:46:14.453Z,1.00
2023-07-17T01:48:44.880Z,1.00
2023-07-17T01:51:18.075Z,1.00
2023-07-17T01:53:51.178Z,1.00
2023-07-17T01:56:21.574Z,1.00
2023-07-17T01:58:51.848Z,1.00
2023-07-17T02:01:24.461Z,1.00
2023-07-17T02:03:54.766Z,1.00
2023-07-17T02:06:25.103Z,1.00
2023-07-17T02:08:58.136Z,2.80
2023-07-17T02:11:30.622Z,11.80
2023-07-17T02:14:00.846Z,7.20
2023-07-17T02:16:31.272Z,1.00
2023-07-17T02:19:01.681Z,1.00
2023-07-17T02:21:39.304Z,1.00
2023-07-17T02:24:12.238Z,1.00
2023-07-17T02:26:42.560Z,1.00
2023-07-17T02:29:12.970Z,4.00
2023-07-17T02:31:44.055Z,10.30
2023-07-17T02:34:17.338Z,12.30
2023-07-17T02:36:47.705Z,16.80
2023-07-17T02:39:22.198Z,27.80
2023-07-17T02:42:01.189Z,34.50
2023-07-17T02:44:37.633Z,41.20
2023-07-17T02:47:13.730Z,51.70
2023-07-17T02:49:44.638Z,56.60
2023-07-17T02:52:17.669Z,56.30
2023-07-17T02:54:55.964Z,59.80
2023-07-17T02:57:37.798Z,53.10
2023-07-17T03:00:16.149Z,48.20
2023-07-17T03:02:50.572Z,22.30
2023-07-17T03:05:23.895Z,8.90
2023-07-17T03:07:57.126Z,8.90
2023-07-17T03:10:36.010Z,16.10
2023-07-17T03:13:17.927Z,27.60
2023-07-17T03:15:48.210Z,48.70
2023-07-17T03:18:21.552Z,36.90
2023-07-17T03:20:51.815Z,39.60
2023-07-17T03:23:22.129Z,66.20
2023-07-17T03:25:55.014Z,91.00
2023-07-17T03:28:25.323Z,99.90
2023-07-17T03:30:55.620Z,99.90
2023-07-17T03:33:26.353Z,99.70
2023-07-17T03:35:56.757Z,95.10
2023-07-17T03:38:27.146Z,99.90
2023-07-17T03:41:00.586Z,99.90
2023-07-17T03:43:30.910Z,99.90
2023-07-17T03:46:01.235Z,99.90
2023-07-17T03:48:31.487Z,97.30
2023-07-17T03:51:16.159Z,83.70
2023-07-17T03:53:46.533Z,96.50
2023-07-17T03:56:24.344Z,79.00
2023-07-17T03:58:54.689Z,60.50
2023-07-17T04:01:25.061Z,54.20
2023-07-17T04:03:55.388Z,49.20
2023-07-17T04:06:25.717Z,49.50
2023-07-17T04:08:55.962Z,30.20
2023-07-17T04:11:28.886Z,28.40
2023-07-17T04:13:59.143Z,27.00
2023-07-17T04:16:29.814Z,14.60
2023-07-17T04:19:00.104Z,24.90
2023-07-17T04:21:33.415Z,33.20
2023-07-17T04:24:03.696Z,53.70
2023-07-17T04:26:36.749Z,50.40
2023-07-17T04:29:07.823Z,52.90
2023-07-17T04:31:38.194Z,69.20
2023-07-17T04:34:17.067Z,62.80
2023-07-17T04:36:59.020Z,54.40
2023-07-17T04:39:31.837Z,34.70
2023-07-17T04:42:07.225Z,26.80
2023-07-17T04:44:37.449Z,1.00
2023-07-17T04:47:08.270Z,1.00
2023-07-17T04:49:51.195Z,1.00
2023-07-17T04:52:21.484Z,1.00
2023-07-17T04:54:55.270Z,1.00
2023-07-17T04:57:28.164Z,1.00
2023-07-17T04:59:58.640Z,1.00
2023-07-17T05:02:28.960Z,1.00
2023-07-17T05:04:59.389Z,1.00
2023-07-17T05:07:29.675Z,1.00
2023-07-17T05:10:00.077Z,1.00
2023-07-17T05:12:32.939Z,1.00
2023-07-17T05:15:03.163Z,1.00
2023-07-17T05:17:33.497Z,1.00
2023-07-17T05:20:05.908Z,1.00
2023-07-17T05:22:36.462Z,1.00
2023-07-17T05:25:07.859Z,1.00
2023-07-17T05:27:43.831Z,99.90
2023-07-17T05:30:16.532Z,61.60
2023-07-17T05:32:46.917Z,1.00
2023-07-17T05:35:19.181Z,99.90
2023-07-17T05:37:52.450Z,1.00
2023-07-17T05:40:22.858Z,1.00
2023-07-17T05:42:55.746Z,1.00
2023-07-17T05:45:26.025Z,99.90
2023-07-17T05:47:56.326Z,75.60
2023-07-17T05:50:26.919Z,1.00
2023-07-17T05:52:57.186Z,1.00
2023-07-17T05:55:27.669Z,1.00
2023-07-17T05:58:00.522Z,1.00
2023-07-17T06:00:30.833Z,1.00
2023-07-17T06:03:01.271Z,99.90
2023-07-17T06:05:31.745Z,99.90
2023-07-17T06:08:05.147Z,1.00
2023-07-17T06:10:35.468Z,99.90
2023-07-17T06:13:08.353Z,99.90
2023-07-17T06:15:40.789Z,42.60
2023-07-17T06:18:11.145Z,1.00
2023-07-17T06:20:47.054Z,1.00
2023-07-17T06:23:17.530Z,1.00
2023-07-17T06:25:48.833Z,1.00
2023-07-17T06:28:29.266Z,16.60
2023-07-17T06:31:00.103Z,99.90
2023-07-17T06:33:30.395Z,99.90
2023-07-17T06:36:00.658Z,99.90
2023-07-17T06:38:33.991Z,1.00
2023-07-17T06:41:07.241Z,1.00
2023-07-17T06:43:40.616Z,1.00
2023-07-17T06:46:10.991Z,1.00
2023-07-17T06:48:42.402Z,99.90
2023-07-17T06:51:12.686Z,99.90
2023-07-17T06:53:43.734Z,99.90
2023-07-17T06:56:16.460Z,99.90
2023-07-17T06:58:57.658Z,99.90
2023-07-17T07:01:30.677Z,99.90
2023-07-17T07:04:01.031Z,99.90
2023-07-17T07:06:31.644Z,99.90
2023-07-17T07:09:12.077Z,99.90
2023-07-17T07:11:42.344Z,99.90
2023-07-17T07:14:15.243Z,1.00
2023-07-17T07:16:45.535Z,1.00
2023-07-17T07:19:16.069Z,1.00
2023-07-17T07:21:49.766Z,1.00
2023-07-17T07:24:25.814Z,1.00
2023-07-17T07:26:56.106Z,1.00
2023-07-17T07:29:29.071Z,1.00
2023-07-17T07:31:59.597Z,1.00
2023-07-17T07:34:30.071Z,1.00
2023-07-17T07:37:00.326Z,1.00
2023-07-17T07:39:30.677Z,1.00
2023-07-17T07:42:00.945Z,1.00
2023-07-17T07:44:33.864Z,1.00
2023-07-17T07:47:04.566Z,1.00
2023-07-17T07:49:34.982Z,1.00
2023-07-17T07:52:05.354Z,1.00
2023-07-17T07:54:35.768Z,1.00
2023-07-17T07:57:06.158Z,1.00
2023-07-17T07:59:39.081Z,1.00
2023-07-17T08:02:10.350Z,1.00
2023-07-17T08:04:40.680Z,1.00
2023-07-17T08:07:11.250Z,1.00
2023-07-17T08:09:45.784Z,1.00
2023-07-17T08:12:22.786Z,1.00
2023-07-17T08:15:03.481Z,1.00
2023-07-17T08:17:36.579Z,1.00
2023-07-17T08:20:08.920Z,1.00
2023-07-17T08:22:44.372Z,1.00
2023-07-17T08:30:30.300Z,1.00
2023-07-17T08:33:00.639Z,1.00
2023-07-17T08:35:31.060Z,1.00
2023-07-17T08:38:02.503Z,1.00
2023-07-17T08:40:34.076Z,1.00
2023-07-17T08:43:05.641Z,1.00
2023-07-17T08:45:43.028Z,1.00
2023-07-17T08:48:14.227Z,1.00
2023-07-17T08:50:45.460Z,1.00
2023-07-17T08:53:17.360Z,1.00
2023-07-17T08:55:47.999Z,1.00
2023-07-17T08:58:18.384Z,1.00
2023-07-17T09:00:53.409Z,1.00
2023-07-17T09:03:27.991Z,1.00
2023-07-17T09:05:58.411Z,1.00
2023-07-17T09:08:28.774Z,1.00
2023-07-17T09:11:11.306Z,1.00
2023-07-17T09:13:42.426Z,1.00
2023-07-17T09:16:24.714Z,1.00
2023-07-17T09:18:57.321Z,1.00
2023-07-17T09:21:28.861Z,1.00
2023-07-17T09:24:00.799Z,1.00
2023-07-17T09:29:18.676Z,1.00
2023-07-17T09:32:07.162Z,1.00
2023-07-17T09:34:37.422Z,1.00
2023-07-17T09:37:13.437Z,1.00
2023-07-17T09:39:46.058Z,1.00
2023-07-17T09:42:27.028Z,1.00
2023-07-17T09:44:57.589Z,1.00
2023-07-17T09:47:30.995Z,1.00
2023-07-17T09:50:02.423Z,1.00
2023-07-17T09:52:36.059Z,1.00
2023-07-17T09:55:09.886Z,1.00
2023-07-17T09:57:44.505Z,1.00
2023-07-17T10:00:23.854Z,1.00
2023-07-17T10:03:11.247Z,1.00
2023-07-17T10:05:42.415Z,1.00
2023-07-17T10:08:14.750Z,1.00
2023-07-17T10:10:45.055Z,1.00
2023-07-17T10:13:17.887Z,1.00
2023-07-17T10:15:48.841Z,1.00
2023-07-17T10:18:21.838Z,1.00
2023-07-17T10:20:58.989Z,1.00
2023-07-17T10:23:33.542Z,1.00
2023-07-17T10:26:11.883Z,1.00
2023-07-17T10:28:45.572Z,1.00
2023-07-17T10:31:24.998Z,1.00
2023-07-17T10:34:02.662Z,1.00
2023-07-17T10:36:51.048Z,1.00
2023-07-17T10:39:23.228Z,1.00
2023-07-17T10:41:59.909Z,1.00
2023-07-17T10:44:38.112Z,1.00
2023-07-17T10:47:16.526Z,1.00
2023-07-17T10:49:54.333Z,1.00
2023-07-17T10:52:24.658Z,1.00
2023-07-17T10:54:55.318Z,1.00
2023-07-17T10:57:29.036Z,1.00
2023-07-17T11:00:02.717Z,1.00
2023-07-17T11:02:36.059Z,1.00
2023-07-17T11:05:12.477Z,1.00
2023-07-17T11:07:43.908Z,1.00
2023-07-17T11:10:15.812Z,1.00
2023-07-17T11:12:48.893Z,1.00
2023-07-17T11:15:32.360Z,1.00
2023-07-17T11:18:03.825Z,1.00
2023-07-17T11:20:37.485Z,1.00
2023-07-17T11:23:10.614Z,1.00
2023-07-17T11:25:49.587Z,1.00
2023-07-17T11:28:20.122Z,1.00
2023-07-17T11:30:52.026Z,1.00
2023-07-17T11:33:22.346Z,1.00
2023-07-17T11:38:41.435Z,1.00
2023-07-17T11:41:11.799Z,1.00
2023-07-17T11:43:42.094Z,1.00
2023-07-17T11:46:13.481Z,1.00
2023-07-17T11:48:47.436Z,1.00
2023-07-17T11:51:20.562Z,1.00
2023-07-17T11:53:58.217Z,1.00
2023-07-17T11:56:38.839Z,1.00
2023-07-17T11:59:18.920Z,1.00
2023-07-17T12:01:50.015Z,1.00
2023-07-17T12:04:32.138Z,1.00
2023-07-17T12:07:06.710Z,1.00
2023-07-17T12:09:37.131Z,1.00
2023-07-17T12:12:09.042Z,1.00
2023-07-17T12:14:40.645Z,1.00
2023-07-17T12:17:11.013Z,1.00
2023-07-17T12:19:41.899Z,1.00
2023-07-17T12:24:50.513Z,1.00
2023-07-17T12:27:20.829Z,1.00
2023-07-17T12:29:51.091Z,1.00
2023-07-17T12:32:24.443Z,1.00
2023-07-17T12:35:03.494Z,1.00
2023-07-17T12:37:38.886Z,1.00
2023-07-17T12:40:11.481Z,1.00
2023-07-17T12:42:44.835Z,1.00
2023-07-17T12:45:15.130Z,1.00
2023-07-17T12:47:46.105Z,1.00
2023-07-17T12:50:16.833Z,1.00
2023-07-17T12:52:49.785Z,1.00
2023-07-17T12:55:23.429Z,1.00
2023-07-17T12:57:54.259Z,1.00
2023-07-17T13:00:25.967Z,1.00
2023-07-17T13:02:56.388Z,1.00
2023-07-17T13:05:26.726Z,1.00
2023-07-17T13:08:02.386Z,1.00
2023-07-17T13:10:32.657Z,1.00
2023-07-17T13:13:05.763Z,1.00
2023-07-17T13:15:36.011Z,1.00
2023-07-17T13:18:06.856Z,1.00
2023-07-17T13:20:37.169Z,1.00
2023-07-17T13:23:15.913Z,1.00
2023-07-17T13:25:46.175Z,1.00
2023-07-17T13:28:16.443Z,1.00
2023-07-17T13:31:03.748Z,1.00
2023-07-17T13:33:38.100Z,1.00
2023-07-17T13:36:11.600Z,1.00
2023-07-17T13:38:47.736Z,1.00
2023-07-17T13:41:43.310Z,1.00
2023-07-17T13:44:15.370Z,1.00
2023-07-17T13:46:48.445Z,1.00
2023-07-17T13:49:20.228Z,1.00
2023-07-17T13:51:55.368Z,1.00
2023-07-17T13:54:28.273Z,1.00
2023-07-17T13:57:06.045Z,1.00
2023-07-17T13:59:36.378Z,1.00
2023-07-17T14:02:07.375Z,1.00
2023-07-17T14:04:39.424Z,1.00
2023-07-17T14:07:21.685Z,1.00
2023-07-17T14:10:01.781Z,1.00
2023-07-17T14:12:34.296Z,1.00
2023-07-17T14:15:05.932Z,1.00
2023-07-17T14:17:36.528Z,1.00
2023-07-17T14:20:08.091Z,1.00
2023-07-17T14:22:38.376Z,1.00
2023-07-17T14:25:12.067Z,1.00
2023-07-17T14:27:42.309Z,1.00
2023-07-17T14:30:19.783Z,1.00
2023-07-17T14:32:50.251Z,1.00
2023-07-17T14:35:20.791Z,1.00
2023-07-17T14:37:51.087Z,1.00
2023-07-17T14:40:26.354Z,1.00
2023-07-17T14:42:56.768Z,1.00
2023-07-17T14:45:27.175Z,1.00
2023-07-17T14:47:57.550Z,1.00
2023-07-17T14:50:28.139Z,1.00
2023-07-17T14:52:58.452Z,1.00
2023-07-17T14:55:31.347Z,1.00
2023-07-17T14:58:01.571Z,1.00
2023-07-17T15:00:31.825Z,1.00
2023-07-17T15:03:07.072Z,1.00
2023-07-17T15:05:37.487Z,1.00
2023-07-17T15:08:11.077Z,1.00
2023-07-17T15:10:44.129Z,1.00
2023-07-17T15:13:18.873Z,1.00
2023-07-17T15:15:49.217Z,1.00
2023-07-17T15:18:28.310Z,1.00
2023-07-17T15:21:01.880Z,1.00
2023-07-17T15:23:34.568Z,1.00
2023-07-17T15:26:07.448Z,1.00
2023-07-17T15:28:40.018Z,1.00
2023-07-17T15:31:13.384Z,1.00
2023-07-17T15:33:43.893Z,1.00
2023-07-17T15:36:14.210Z,1.00
2023-07-17T15:38:44.473Z,1.00
2023-07-17T15:41:18.508Z,1.00
2023-07-17T15:43:55.016Z,1.00
2023-07-17T15:46:25.362Z,1.00
2023-07-17T15:48:55.663Z,1.00
2023-07-17T15:51:25.980Z,1.00
2023-07-17T15:53:56.183Z,1.00
2023-07-17T15:56:29.186Z,1.00
2023-07-17T15:59:00.039Z,1.00
2023-07-17T16:01:42.796Z,1.00
2023-07-17T16:04:16.243Z,1.00
2023-07-17T16:06:56.184Z,1.00
2023-07-17T16:09:26.978Z,1.00
2023-07-17T16:12:04.958Z,1.00
2023-07-17T16:14:44.131Z,1.00
2023-07-17T16:17:15.422Z,1.00
2023-07-17T16:19:50.815Z,1.00
2023-07-17T16:22:21.242Z,1.00
2023-07-17T16:24:58.970Z,1.00
2023-07-17T16:27:31.917Z,1.00
2023-07-17T16:30:02.171Z,1.00
2023-07-17T16:32:41.911Z,1.00
2023-07-17T16:35:12.699Z,1.00
2023-07-17T16:37:43.018Z,1.00
2023-07-17T16:40:15.011Z,1.00
2023-07-17T16:42:47.907Z,1.00
2023-07-17T16:45:18.272Z,1.00
2023-07-17T16:47:48.641Z,1.00
2023-07-17T16:50:26.499Z,1.00
2023-07-17T16:52:56.795Z,1.00
2023-07-17T16:55:27.708Z,1.00
2023-07-17T16:58:00.576Z,1.00
2023-07-17T17:00:30.839Z,1.00
2023-07-17T17:03:06.986Z,1.00
2023-07-17T17:05:37.353Z,1.00
2023-07-17T17:08:08.574Z,1.00
2023-07-17T17:10:41.717Z,1.00
2023-07-17T17:13:14.635Z,1.00
2023-07-17T17:15:46.085Z,1.00
2023-07-17T17:18:16.551Z,1.00
2023-07-17T17:20:46.913Z,1.00
2023-07-17T17:23:17.213Z,1.00
2023-07-17T17:25:50.346Z,41.80
2023-07-17T17:28:23.222Z,99.90
2023-07-17T17:30:54.322Z,99.90
2023-07-17T17:33:24.850Z,1.00
2023-07-17T17:35:58.227Z,99.90
2023-07-17T17:38:31.163Z,1.00
2023-07-17T17:41:07.684Z,1.00
2023-07-17T17:43:52.814Z,1.00
2023-07-17T17:46:23.280Z,1.00
2023-07-17T17:48:53.599Z,99.90
2023-07-17T17:51:24.226Z,1.00
2023-07-17T17:53:54.455Z,99.90
2023-07-17T17:56:24.733Z,1.00
2023-07-17T17:59:06.510Z,1.00
2023-07-17T18:01:36.816Z,1.00
2023-07-17T18:04:07.474Z,1.00
2023-07-17T18:06:37.832Z,1.00
2023-07-17T18:09:08.120Z,99.90
2023-07-17T18:11:40.810Z,99.90
2023-07-17T18:14:14.846Z,99.90
2023-07-17T18:16:45.161Z,99.90
2023-07-17T18:19:15.594Z,99.90
2023-07-17T18:21:50.271Z,39.70
2023-07-17T18:24:23.580Z,1.00
2023-07-17T18:26:53.834Z,1.00
2023-07-17T18:29:26.811Z,1.00
2023-07-17T18:31:57.189Z,1.00
2023-07-17T18:34:31.970Z,99.90
2023-07-17T18:37:05.750Z,1.00
2023-07-17T18:39:36.081Z,1.00
2023-07-17T18:42:06.611Z,1.00
2023-07-17T18:44:40.063Z,1.00
2023-07-17T18:47:10.711Z,1.00
2023-07-17T18:49:40.967Z,99.90
2023-07-17T18:52:14.312Z,99.90
2023-07-17T18:54:44.747Z,1.00
2023-07-17T18:57:15.020Z,99.90
2023-07-17T18:59:47.940Z,1.00
2023-07-17T19:02:18.219Z,99.90
2023-07-17T19:05:00.766Z,1.00
2023-07-17T19:07:33.842Z,99.90
2023-07-17T19:10:07.486Z,23.00
2023-07-17T19:12:37.835Z,1.00
2023-07-17T19:15:13.403Z,77.70
2023-07-17T19:17:43.715Z,99.90
2023-07-17T19:20:17.290Z,54.20
2023-07-17T19:22:50.616Z,99.90
2023-07-17T19:25:28.987Z,99.90
2023-07-17T19:27:59.278Z,99.90
2023-07-17T19:30:32.559Z,99.90
2023-07-17T19:33:02.985Z,1.00
2023-07-17T19:36:11.202Z,1.00
2023-07-17T19:39:03.584Z,1.00
2023-07-17T19:41:34.051Z,1.00
2023-07-17T19:44:04.286Z,1.00
2023-07-17T19:46:37.245Z,1.00
2023-07-17T19:49:08.123Z,1.00
2023-07-17T19:51:39.659Z,1.00
2023-07-17T19:54:09.933Z,1.00
2023-07-17T19:56:41.634Z,1.00
2023-07-17T19:59:12.140Z,1.00
2023-07-17T20:01:45.340Z,1.00
2023-07-17T20:04:15.886Z,1.00
2023-07-17T20:06:46.525Z,1.00
2023-07-17T20:09:16.829Z,1.00
2023-07-17T20:11:47.118Z,1.00
2023-07-17T20:14:17.449Z,1.00
2023-07-17T20:16:50.322Z,1.00
2023-07-17T20:19:20.577Z,1.00
2023-07-17T20:21:50.860Z,1.00
2023-07-17T20:24:28.473Z,1.00
2023-07-17T20:26:58.801Z,1.00
2023-07-17T20:29:30.667Z,1.00
2023-07-17T20:32:06.154Z,1.00
2023-07-17T20:34:36.651Z,1.00
2023-07-17T20:37:07.073Z,1.00
2023-07-17T20:39:37.370Z,1.00
2023-07-17T20:42:09.593Z,1.00
2023-07-17T20:44:39.822Z,1.00
2023-07-17T20:47:12.810Z,1.00
2023-07-17T20:49:43.084Z,6.30
2023-07-17T20:52:13.393Z,6.80
2023-07-17T20:54:43.620Z,11.60
2023-07-17T20:57:13.898Z,5.40
2023-07-17T20:59:45.538Z,4.50
2023-07-17T21:02:18.807Z,1.00
2023-07-17T21:04:49.076Z,1.00
2023-07-17T21:07:19.354Z,1.00
2023-07-17T21:09:53.351Z,3.90
2023-07-17T21:12:24.088Z,10.50
2023-07-17T21:14:54.524Z,18.10
2023-07-17T21:17:27.710Z,18.90
2023-07-17T21:19:58.029Z,21.50
2023-07-17T21:22:28.452Z,35.90
2023-07-17T21:24:58.747Z,43.80
2023-07-17T21:27:29.031Z,32.30
2023-07-17T21:29:59.550Z,32.90
2023-07-17T21:32:32.494Z,47.60
2023-07-17T21:35:03.689Z,52.30
2023-07-17T21:37:34.137Z,67.30
2023-07-17T21:40:04.588Z,59.70
2023-07-17T21:42:35.526Z,72.30
2023-07-17T21:45:05.906Z,76.00
2023-07-17T21:47:46.475Z,68.30
2023-07-17T21:50:19.662Z,71.40
2023-07-17T21:52:49.961Z,73.60
2023-07-17T21:55:20.206Z,93.20
2023-07-17T21:57:50.719Z,99.90
2023-07-17T22:00:22.062Z,99.90
2023-07-17T22:02:57.910Z,95.10
2023-07-17T22:05:28.199Z,99.30
2023-07-17T22:08:01.801Z,80.10
2023-07-17T22:10:35.224Z,95.10
2023-07-17T22:13:08.957Z,99.90
2023-07-17T22:15:39.233Z,99.90
2023-07-17T22:18:27.758Z,99.90
2023-07-17T22:21:01.514Z,99.90
2023-07-17T22:23:31.890Z,99.90
2023-07-17T22:26:02.156Z,99.90
2023-07-17T22:28:32.496Z,99.90
2023-07-17T22:31:03.478Z,99.90
2023-07-17T22:33:44.785Z,99.90
2023-07-17T22:36:15.060Z,99.90
2023-07-17T22:38:45.325Z,99.90
2023-07-17T22:41:15.596Z,99.90
2023-07-17T22:43:45.982Z,99.90
2023-07-17T22:46:16.311Z,99.90
2023-07-17T22:48:50.069Z,99.90
2023-07-17T22:51:20.562Z,99.90
2023-07-17T22:53:54.147Z,99.90
2023-07-17T22:56:26.896Z,99.90
2023-07-17T22:59:00.200Z,99.90
2023-07-17T23:01:30.539Z,99.90
2023-07-17T23:04:05.867Z,99.90
2023-07-17T23:06:38.562Z,99.90
2023-07-17T23:09:09.332Z,99.90
2023-07-17T23:11:42.453Z,99.90
2023-07-17T23:14:13.297Z,99.90
2023-07-17T23:16:43.877Z,99.90
2023-07-17T23:19:19.303Z,99.90
2023-07-17T23:21:49.724Z,99.90
2023-07-17T23:24:24.415Z,99.90
2023-07-17T23:26:57.794Z,99.90
2023-07-17T23:29:28.145Z,99.90
2023-07-17T23:31:59.109Z,99.90
2023-07-17T23:34:32.058Z,99.90
2023-07-17T23:37:02.323Z,99.90
2023-07-17T23:39:49.374Z,99.90
2023-07-17T23:42:25.145Z,99.90
2023-07-17T23:44:55.368Z,99.90
2023-07-17T23:47:25.688Z,99.90
2023-07-17T23:49:58.895Z,99.90
2023-07-17T23:52:31.213Z,99.90
2023-07-17T23:55:01.478Z,99.90
2023-07-17T23:57:32.563Z,99.90
